sensor_id;sensor_type;location;lat;lon;timestamp;P1;durP1;ratioP1;P2;durP2;ratioP2
7027;SDS011;3555;53.248;10.336;2022-09-28T00:01:26;5.83;;;3.97;;
7027;SDS011;3555;53.248;10.336;2022-09-28T00:03:54;4.40;;;3.87;;
7027;SDS011;3555;53.248;10.336;2022-09-28T00:06:24;5.47;;;3.60;;
7027;SDS011;3555;53.248;10.336;2022-09-28T00:08:52;5.13;;;4.10;;
7027;SDS011;3555;53.248;10.336;2022-09-28T00:11:19;8.30;;;4.03;;
7027;SDS011;3555;53.248;10.336;2022-09-28T00:13:48;4.20;;;3.80;;
7027;SDS011;3555;53.248;10.336;2022-09-28T00:16:17;4.20;;;3.70;;
7027;SDS011;3555;53.248;10.336;2022-09-28T00:18:45;6.63;;;3.47;;
7027;SDS011;3555;53.248;10.336;2022-09-28T00:21:15;3.73;;;3.43;;
7027;SDS011;3555;53.248;10.336;2022-09-28T00:23:44;5.97;;;4.10;;
7027;SDS011;3555;53.248;10.336;2022-09-28T00:26:25;5.20;;;4.17;;
7027;SDS011;3555;53.248;10.336;2022-09-28T00:28:54;4.07;;;3.67;;
7027;SDS011;3555;53.248;10.336;2022-09-28T00:31:22;5.10;;;4.60;;
7027;SDS011;3555;53.248;10.336;2022-09-28T00:33:50;5.47;;;4.97;;
7027;SDS011;3555;53.248;10.336;2022-09-28T00:36:17;6.10;;;5.00;;
7027;SDS011;3555;53.248;10.336;2022-09-28T00:38:46;6.13;;;4.70;;
7027;SDS011;3555;53.248;10.336;2022-09-28T00:41:12;5.90;;;4.70;;
7027;SDS011;3555;53.248;10.336;2022-09-28T00:43:40;5.40;;;4.70;;
7027;SDS011;3555;53.248;10.336;2022-09-28T00:46:08;6.40;;;4.67;;
7027;SDS011;3555;53.248;10.336;2022-09-28T00:48:45;7.07;;;4.97;;
7027;SDS011;3555;53.248;10.336;2022-09-28T00:51:18;8.60;;;5.33;;
7027;SDS011;3555;53.248;10.336;2022-09-28T00:53:47;6.77;;;6.00;;
7027;SDS011;3555;53.248;10.336;2022-09-28T00:56:16;7.13;;;6.13;;
7027;SDS011;3555;53.248;10.336;2022-09-28T00:58:47;6.20;;;5.60;;
7027;SDS011;3555;53.248;10.336;2022-09-28T01:01:16;9.57;;;6.83;;
7027;SDS011;3555;53.248;10.336;2022-09-28T01:03:44;6.97;;;6.27;;
7027;SDS011;3555;53.248;10.336;2022-09-28T01:06:15;9.33;;;6.97;;
7027;SDS011;3555;53.248;10.336;2022-09-28T01:08:46;8.73;;;7.00;;
7027;SDS011;3555;53.248;10.336;2022-09-28T01:11:15;7.97;;;6.33;;
7027;SDS011;3555;53.248;10.336;2022-09-28T01:13:42;8.73;;;7.27;;
7027;SDS011;3555;53.248;10.336;2022-09-28T01:16:11;9.27;;;7.30;;
7027;SDS011;3555;53.248;10.336;2022-09-28T01:18:46;11.00;;;7.20;;
7027;SDS011;3555;53.248;10.336;2022-09-28T01:21:21;11.00;;;8.40;;
7027;SDS011;3555;53.248;10.336;2022-09-28T01:26:46;10.87;;;8.53;;
7027;SDS011;3555;53.248;10.336;2022-09-28T01:29:23;11.87;;;9.60;;
7027;SDS011;3555;53.248;10.336;2022-09-28T01:32:12;10.50;;;8.60;;
7027;SDS011;3555;53.248;10.336;2022-09-28T01:34:45;11.50;;;8.43;;
7027;SDS011;3555;53.248;10.336;2022-09-28T01:37:17;12.37;;;9.37;;
7027;SDS011;3555;53.248;10.336;2022-09-28T01:39:47;9.90;;;8.37;;
7027;SDS011;3555;53.248;10.336;2022-09-28T01:42:19;12.27;;;9.63;;
7027;SDS011;3555;53.248;10.336;2022-09-28T01:44:49;13.60;;;9.27;;
7027;SDS011;3555;53.248;10.336;2022-09-28T01:47:21;11.10;;;9.70;;
7027;SDS011;3555;53.248;10.336;2022-09-28T01:49:51;12.37;;;9.67;;
7027;SDS011;3555;53.248;10.336;2022-09-28T01:52:25;11.43;;;9.47;;
7027;SDS011;3555;53.248;10.336;2022-09-28T01:54:59;12.43;;;10.13;;
7027;SDS011;3555;53.248;10.336;2022-09-28T01:57:33;10.10;;;9.00;;
7027;SDS011;3555;53.248;10.336;2022-09-28T02:00:05;10.93;;;9.27;;
7027;SDS011;3555;53.248;10.336;2022-09-28T02:02:35;13.10;;;10.07;;
7027;SDS011;3555;53.248;10.336;2022-09-28T02:05:06;12.37;;;9.70;;
7027;SDS011;3555;53.248;10.336;2022-09-28T02:07:39;13.17;;;9.30;;
7027;SDS011;3555;53.248;10.336;2022-09-28T02:10:12;14.67;;;10.20;;
7027;SDS011;3555;53.248;10.336;2022-09-28T02:12:43;11.57;;;9.93;;
7027;SDS011;3555;53.248;10.336;2022-09-28T02:15:13;14.40;;;9.83;;
7027;SDS011;3555;53.248;10.336;2022-09-28T02:17:45;12.47;;;9.87;;
7027;SDS011;3555;53.248;10.336;2022-09-28T02:20:12;14.87;;;9.83;;
7027;SDS011;3555;53.248;10.336;2022-09-28T02:22:40;12.50;;;9.93;;
7027;SDS011;3555;53.248;10.336;2022-09-28T02:25:15;12.33;;;9.40;;
7027;SDS011;3555;53.248;10.336;2022-09-28T02:27:51;10.63;;;8.70;;
7027;SDS011;3555;53.248;10.336;2022-09-28T02:30:22;12.30;;;9.50;;
7027;SDS011;3555;53.248;10.336;2022-09-28T02:32:50;15.47;;;11.30;;
7027;SDS011;3555;53.248;10.336;2022-09-28T02:35:21;17.40;;;10.00;;
7027;SDS011;3555;53.248;10.336;2022-09-28T02:37:48;11.77;;;8.73;;
7027;SDS011;3555;53.248;10.336;2022-09-28T02:40:16;12.00;;;9.40;;
7027;SDS011;3555;53.248;10.336;2022-09-28T02:42:48;14.13;;;10.33;;
7027;SDS011;3555;53.248;10.336;2022-09-28T02:45:36;13.77;;;10.50;;
7027;SDS011;3555;53.248;10.336;2022-09-28T02:48:18;13.90;;;10.40;;
7027;SDS011;3555;53.248;10.336;2022-09-28T02:50:57;12.60;;;9.67;;
7027;SDS011;3555;53.248;10.336;2022-09-28T02:56:30;13.77;;;8.60;;
7027;SDS011;3555;53.248;10.336;2022-09-28T02:59:09;14.70;;;10.53;;
7027;SDS011;3555;53.248;10.336;2022-09-28T03:01:45;13.27;;;9.37;;
7027;SDS011;3555;53.248;10.336;2022-09-28T03:04:20;23.27;;;12.83;;
7027;SDS011;3555;53.248;10.336;2022-09-28T03:06:53;15.33;;;10.17;;
7027;SDS011;3555;53.248;10.336;2022-09-28T03:09:27;13.00;;;8.90;;
7027;SDS011;3555;53.248;10.336;2022-09-28T03:11:59;13.47;;;8.60;;
7027;SDS011;3555;53.248;10.336;2022-09-28T03:14:33;13.10;;;9.13;;
7027;SDS011;3555;53.248;10.336;2022-09-28T03:16:59;12.17;;;9.80;;
7027;SDS011;3555;53.248;10.336;2022-09-28T03:19:27;13.60;;;9.53;;
7027;SDS011;3555;53.248;10.336;2022-09-28T03:21:56;15.07;;;9.67;;
7027;SDS011;3555;53.248;10.336;2022-09-28T03:24:24;14.97;;;10.87;;
7027;SDS011;3555;53.248;10.336;2022-09-28T03:26:51;13.50;;;10.50;;
7027;SDS011;3555;53.248;10.336;2022-09-28T03:29:17;14.17;;;10.53;;
7027;SDS011;3555;53.248;10.336;2022-09-28T03:31:46;12.87;;;9.97;;
7027;SDS011;3555;53.248;10.336;2022-09-28T03:34:13;16.07;;;11.17;;
7027;SDS011;3555;53.248;10.336;2022-09-28T03:36:39;13.63;;;10.43;;
7027;SDS011;3555;53.248;10.336;2022-09-28T03:39:06;14.83;;;11.03;;
7027;SDS011;3555;53.248;10.336;2022-09-28T03:41:33;16.00;;;11.83;;
7027;SDS011;3555;53.248;10.336;2022-09-28T03:44:00;17.30;;;11.53;;
7027;SDS011;3555;53.248;10.336;2022-09-28T03:46:27;16.00;;;11.00;;
7027;SDS011;3555;53.248;10.336;2022-09-28T03:48:56;15.70;;;11.93;;
7027;SDS011;3555;53.248;10.336;2022-09-28T03:51:23;15.77;;;12.00;;
7027;SDS011;3555;53.248;10.336;2022-09-28T03:53:50;17.87;;;12.13;;
7027;SDS011;3555;53.248;10.336;2022-09-28T03:56:16;19.13;;;11.47;;
7027;SDS011;3555;53.248;10.336;2022-09-28T03:58:43;16.23;;;12.23;;
7027;SDS011;3555;53.248;10.336;2022-09-28T04:01:10;18.17;;;12.47;;
7027;SDS011;3555;53.248;10.336;2022-09-28T04:03:39;19.50;;;12.50;;
7027;SDS011;3555;53.248;10.336;2022-09-28T04:06:08;17.87;;;12.07;;
7027;SDS011;3555;53.248;10.336;2022-09-28T04:08:35;18.03;;;12.80;;
7027;SDS011;3555;53.248;10.336;2022-09-28T04:11:02;18.00;;;12.70;;
7027;SDS011;3555;53.248;10.336;2022-09-28T04:13:29;18.27;;;13.33;;
7027;SDS011;3555;53.248;10.336;2022-09-28T04:15:57;20.80;;;13.57;;
7027;SDS011;3555;53.248;10.336;2022-09-28T04:18:25;16.27;;;12.70;;
7027;SDS011;3555;53.248;10.336;2022-09-28T04:20:59;18.73;;;13.07;;
7027;SDS011;3555;53.248;10.336;2022-09-28T04:23:32;19.13;;;12.93;;
7027;SDS011;3555;53.248;10.336;2022-09-28T04:26:00;20.93;;;13.87;;
7027;SDS011;3555;53.248;10.336;2022-09-28T04:28:27;18.70;;;13.23;;
7027;SDS011;3555;53.248;10.336;2022-09-28T04:31:12;19.80;;;14.27;;
7027;SDS011;3555;53.248;10.336;2022-09-28T04:33:41;21.77;;;14.97;;
7027;SDS011;3555;53.248;10.336;2022-09-28T04:36:07;21.97;;;15.23;;
7027;SDS011;3555;53.248;10.336;2022-09-28T04:38:36;26.67;;;16.20;;
7027;SDS011;3555;53.248;10.336;2022-09-28T04:41:03;23.20;;;15.73;;
7027;SDS011;3555;53.248;10.336;2022-09-28T04:43:31;22.70;;;15.80;;
7027;SDS011;3555;53.248;10.336;2022-09-28T04:45:58;27.63;;;16.77;;
7027;SDS011;3555;53.248;10.336;2022-09-28T04:48:26;24.00;;;15.33;;
7027;SDS011;3555;53.248;10.336;2022-09-28T04:50:53;26.23;;;16.60;;
7027;SDS011;3555;53.248;10.336;2022-09-28T04:53:20;27.50;;;16.87;;
7027;SDS011;3555;53.248;10.336;2022-09-28T04:55:56;28.33;;;18.37;;
7027;SDS011;3555;53.248;10.336;2022-09-28T04:58:23;25.53;;;17.70;;
7027;SDS011;3555;53.248;10.336;2022-09-28T05:00:51;25.20;;;16.53;;
7027;SDS011;3555;53.248;10.336;2022-09-28T05:03:21;28.13;;;16.57;;
7027;SDS011;3555;53.248;10.336;2022-09-28T05:05:48;26.37;;;17.13;;
7027;SDS011;3555;53.248;10.336;2022-09-28T05:08:15;23.83;;;16.97;;
7027;SDS011;3555;53.248;10.336;2022-09-28T05:10:43;26.23;;;16.83;;
7027;SDS011;3555;53.248;10.336;2022-09-28T05:13:12;28.37;;;18.07;;
7027;SDS011;3555;53.248;10.336;2022-09-28T05:15:40;24.73;;;16.67;;
7027;SDS011;3555;53.248;10.336;2022-09-28T05:18:07;26.37;;;16.43;;
7027;SDS011;3555;53.248;10.336;2022-09-28T05:20:38;27.97;;;17.10;;
7027;SDS011;3555;53.248;10.336;2022-09-28T05:23:07;21.27;;;14.37;;
7027;SDS011;3555;53.248;10.336;2022-09-28T05:25:35;24.37;;;15.97;;
7027;SDS011;3555;53.248;10.336;2022-09-28T05:28:02;24.23;;;15.93;;
7027;SDS011;3555;53.248;10.336;2022-09-28T05:30:30;24.90;;;14.83;;
7027;SDS011;3555;53.248;10.336;2022-09-28T05:32:57;25.20;;;15.73;;
7027;SDS011;3555;53.248;10.336;2022-09-28T05:35:24;22.90;;;15.27;;
7027;SDS011;3555;53.248;10.336;2022-09-28T05:37:51;21.17;;;14.63;;
7027;SDS011;3555;53.248;10.336;2022-09-28T05:40:19;24.37;;;14.93;;
7027;SDS011;3555;53.248;10.336;2022-09-28T05:42:46;22.37;;;15.93;;
7027;SDS011;3555;53.248;10.336;2022-09-28T05:45:13;23.87;;;15.67;;
7027;SDS011;3555;53.248;10.336;2022-09-28T05:47:42;20.67;;;15.10;;
7027;SDS011;3555;53.248;10.336;2022-09-28T05:50:10;22.57;;;14.67;;
7027;SDS011;3555;53.248;10.336;2022-09-28T05:52:40;23.57;;;15.97;;
7027;SDS011;3555;53.248;10.336;2022-09-28T05:55:07;23.40;;;15.23;;
7027;SDS011;3555;53.248;10.336;2022-09-28T05:57:35;21.77;;;15.87;;
7027;SDS011;3555;53.248;10.336;2022-09-28T06:00:02;22.07;;;16.17;;
7027;SDS011;3555;53.248;10.336;2022-09-28T06:02:31;23.90;;;14.27;;
7027;SDS011;3555;53.248;10.336;2022-09-28T06:05:00;23.20;;;15.07;;
7027;SDS011;3555;53.248;10.336;2022-09-28T06:07:27;23.40;;;14.80;;
7027;SDS011;3555;53.248;10.336;2022-09-28T06:09:53;25.17;;;16.10;;
7027;SDS011;3555;53.248;10.336;2022-09-28T06:12:20;22.17;;;15.33;;
7027;SDS011;3555;53.248;10.336;2022-09-28T06:14:47;21.23;;;15.33;;
7027;SDS011;3555;53.248;10.336;2022-09-28T06:17:14;18.90;;;13.03;;
7027;SDS011;3555;53.248;10.336;2022-09-28T06:19:41;26.27;;;15.07;;
7027;SDS011;3555;53.248;10.336;2022-09-28T06:22:09;23.83;;;15.23;;
7027;SDS011;3555;53.248;10.336;2022-09-28T06:24:36;23.00;;;15.37;;
7027;SDS011;3555;53.248;10.336;2022-09-28T06:27:03;21.83;;;14.63;;
7027;SDS011;3555;53.248;10.336;2022-09-28T06:29:30;20.13;;;14.57;;
7027;SDS011;3555;53.248;10.336;2022-09-28T06:31:56;22.63;;;16.90;;
7027;SDS011;3555;53.248;10.336;2022-09-28T06:34:23;21.33;;;15.53;;
7027;SDS011;3555;53.248;10.336;2022-09-28T06:36:50;20.87;;;14.27;;
7027;SDS011;3555;53.248;10.336;2022-09-28T06:39:18;23.90;;;15.23;;
7027;SDS011;3555;53.248;10.336;2022-09-28T06:41:45;24.73;;;16.43;;
7027;SDS011;3555;53.248;10.336;2022-09-28T06:44:11;22.00;;;15.40;;
7027;SDS011;3555;53.248;10.336;2022-09-28T06:46:38;24.60;;;16.13;;
7027;SDS011;3555;53.248;10.336;2022-09-28T06:49:05;24.27;;;15.80;;
7027;SDS011;3555;53.248;10.336;2022-09-28T06:51:33;23.83;;;16.83;;
7027;SDS011;3555;53.248;10.336;2022-09-28T06:54:01;24.73;;;16.30;;
7027;SDS011;3555;53.248;10.336;2022-09-28T06:56:29;24.07;;;17.33;;
7027;SDS011;3555;53.248;10.336;2022-09-28T06:58:56;28.30;;;17.97;;
7027;SDS011;3555;53.248;10.336;2022-09-28T07:01:22;30.73;;;18.17;;
7027;SDS011;3555;53.248;10.336;2022-09-28T07:03:49;31.67;;;18.93;;
7027;SDS011;3555;53.248;10.336;2022-09-28T07:06:16;30.10;;;19.23;;
7027;SDS011;3555;53.248;10.336;2022-09-28T07:08:44;27.60;;;17.80;;
7027;SDS011;3555;53.248;10.336;2022-09-28T07:11:11;28.30;;;18.87;;
7027;SDS011;3555;53.248;10.336;2022-09-28T07:13:40;26.37;;;17.70;;
7027;SDS011;3555;53.248;10.336;2022-09-28T07:16:07;26.13;;;17.37;;
7027;SDS011;3555;53.248;10.336;2022-09-28T07:18:34;29.23;;;17.20;;
7027;SDS011;3555;53.248;10.336;2022-09-28T07:21:01;28.70;;;18.00;;
7027;SDS011;3555;53.248;10.336;2022-09-28T07:23:28;31.87;;;19.17;;
7027;SDS011;3555;53.248;10.336;2022-09-28T07:25:55;25.80;;;16.83;;
7027;SDS011;3555;53.248;10.336;2022-09-28T07:28:22;27.90;;;17.27;;
7027;SDS011;3555;53.248;10.336;2022-09-28T07:30:50;30.07;;;18.10;;
7027;SDS011;3555;53.248;10.336;2022-09-28T07:33:17;24.07;;;17.57;;
7027;SDS011;3555;53.248;10.336;2022-09-28T07:35:50;26.00;;;17.47;;
7027;SDS011;3555;53.248;10.336;2022-09-28T07:38:17;23.53;;;15.57;;
7027;SDS011;3555;53.248;10.336;2022-09-28T07:40:44;22.90;;;16.43;;
7027;SDS011;3555;53.248;10.336;2022-09-28T07:43:28;21.10;;;15.07;;
7027;SDS011;3555;53.248;10.336;2022-09-28T07:45:56;23.07;;;15.03;;
7027;SDS011;3555;53.248;10.336;2022-09-28T07:48:23;21.47;;;15.43;;
7027;SDS011;3555;53.248;10.336;2022-09-28T07:50:50;20.07;;;15.00;;
7027;SDS011;3555;53.248;10.336;2022-09-28T07:53:18;22.33;;;15.83;;
7027;SDS011;3555;53.248;10.336;2022-09-28T07:55:49;21.50;;;15.97;;
7027;SDS011;3555;53.248;10.336;2022-09-28T07:58:16;25.67;;;17.03;;
7027;SDS011;3555;53.248;10.336;2022-09-28T08:00:45;21.60;;;14.97;;
7027;SDS011;3555;53.248;10.336;2022-09-28T08:03:14;35.93;;;16.60;;
7027;SDS011;3555;53.248;10.336;2022-09-28T08:05:41;23.63;;;16.40;;
7027;SDS011;3555;53.248;10.336;2022-09-28T08:08:09;21.17;;;15.60;;
7027;SDS011;3555;53.248;10.336;2022-09-28T08:10:36;23.07;;;17.13;;
7027;SDS011;3555;53.248;10.336;2022-09-28T08:13:03;26.97;;;17.20;;
7027;SDS011;3555;53.248;10.336;2022-09-28T08:15:30;22.63;;;16.10;;
7027;SDS011;3555;53.248;10.336;2022-09-28T08:18:01;24.43;;;16.27;;
7027;SDS011;3555;53.248;10.336;2022-09-28T08:20:29;23.07;;;15.73;;
7027;SDS011;3555;53.248;10.336;2022-09-28T08:23:13;27.17;;;17.07;;
7027;SDS011;3555;53.248;10.336;2022-09-28T08:25:44;23.20;;;17.10;;
7027;SDS011;3555;53.248;10.336;2022-09-28T08:28:13;25.43;;;17.83;;
7027;SDS011;3555;53.248;10.336;2022-09-28T08:30:41;23.20;;;16.87;;
7027;SDS011;3555;53.248;10.336;2022-09-28T08:33:09;25.30;;;17.13;;
7027;SDS011;3555;53.248;10.336;2022-09-28T08:35:37;23.57;;;15.97;;
7027;SDS011;3555;53.248;10.336;2022-09-28T08:38:05;22.90;;;16.20;;
7027;SDS011;3555;53.248;10.336;2022-09-28T08:40:33;22.47;;;14.93;;
7027;SDS011;3555;53.248;10.336;2022-09-28T08:43:14;23.13;;;16.50;;
7027;SDS011;3555;53.248;10.336;2022-09-28T08:46:10;24.40;;;16.53;;
7027;SDS011;3555;53.248;10.336;2022-09-28T08:48:43;23.33;;;16.37;;
7027;SDS011;3555;53.248;10.336;2022-09-28T08:51:19;20.93;;;15.57;;
7027;SDS011;3555;53.248;10.336;2022-09-28T08:53:52;21.67;;;14.80;;
7027;SDS011;3555;53.248;10.336;2022-09-28T08:56:25;19.83;;;15.07;;
7027;SDS011;3555;53.248;10.336;2022-09-28T08:58:57;21.97;;;15.80;;
7027;SDS011;3555;53.248;10.336;2022-09-28T09:01:30;19.97;;;14.37;;
7027;SDS011;3555;53.248;10.336;2022-09-28T09:04:02;19.63;;;14.27;;
7027;SDS011;3555;53.248;10.336;2022-09-28T09:06:32;18.30;;;13.20;;
7027;SDS011;3555;53.248;10.336;2022-09-28T09:09:14;16.77;;;12.00;;
7027;SDS011;3555;53.248;10.336;2022-09-28T09:11:51;18.10;;;12.37;;
7027;SDS011;3555;53.248;10.336;2022-09-28T09:14:27;17.03;;;12.93;;
7027;SDS011;3555;53.248;10.336;2022-09-28T09:17:17;13.43;;;11.20;;
7027;SDS011;3555;53.248;10.336;2022-09-28T09:19:51;13.23;;;10.53;;
7027;SDS011;3555;53.248;10.336;2022-09-28T09:22:24;15.97;;;11.57;;
7027;SDS011;3555;53.248;10.336;2022-09-28T09:25:00;17.97;;;13.30;;
7027;SDS011;3555;53.248;10.336;2022-09-28T09:27:43;14.23;;;11.20;;
7027;SDS011;3555;53.248;10.336;2022-09-28T09:30:20;15.83;;;10.70;;
7027;SDS011;3555;53.248;10.336;2022-09-28T09:32:55;13.80;;;11.03;;
7027;SDS011;3555;53.248;10.336;2022-09-28T09:35:40;14.07;;;11.90;;
7027;SDS011;3555;53.248;10.336;2022-09-28T09:38:29;13.00;;;11.20;;
7027;SDS011;3555;53.248;10.336;2022-09-28T09:41:10;16.50;;;12.33;;
7027;SDS011;3555;53.248;10.336;2022-09-28T09:43:49;15.23;;;11.37;;
7027;SDS011;3555;53.248;10.336;2022-09-28T09:46:36;92.97;;;41.77;;
7027;SDS011;3555;53.248;10.336;2022-09-28T09:49:07;18.27;;;13.67;;
7027;SDS011;3555;53.248;10.336;2022-09-28T09:51:40;16.47;;;13.23;;
7027;SDS011;3555;53.248;10.336;2022-09-28T09:54:14;15.30;;;12.33;;
7027;SDS011;3555;53.248;10.336;2022-09-28T09:56:47;13.30;;;10.13;;
7027;SDS011;3555;53.248;10.336;2022-09-28T09:59:19;13.07;;;10.57;;
7027;SDS011;3555;53.248;10.336;2022-09-28T10:01:50;14.13;;;11.80;;
7027;SDS011;3555;53.248;10.336;2022-09-28T10:04:19;14.37;;;12.13;;
7027;SDS011;3555;53.248;10.336;2022-09-28T10:06:50;15.77;;;12.87;;
7027;SDS011;3555;53.248;10.336;2022-09-28T10:09:24;18.00;;;13.57;;
7027;SDS011;3555;53.248;10.336;2022-09-28T10:11:55;15.40;;;12.10;;
7027;SDS011;3555;53.248;10.336;2022-09-28T10:14:23;15.10;;;11.73;;
7027;SDS011;3555;53.248;10.336;2022-09-28T10:16:51;15.57;;;12.70;;
7027;SDS011;3555;53.248;10.336;2022-09-28T10:19:19;15.60;;;12.23;;
7027;SDS011;3555;53.248;10.336;2022-09-28T10:21:51;16.93;;;13.17;;
7027;SDS011;3555;53.248;10.336;2022-09-28T10:24:21;15.73;;;13.33;;
7027;SDS011;3555;53.248;10.336;2022-09-28T10:26:54;14.17;;;11.70;;
7027;SDS011;3555;53.248;10.336;2022-09-28T10:29:36;16.97;;;14.30;;
7027;SDS011;3555;53.248;10.336;2022-09-28T10:32:16;17.07;;;13.07;;
7027;SDS011;3555;53.248;10.336;2022-09-28T10:34:44;16.73;;;12.80;;
7027;SDS011;3555;53.248;10.336;2022-09-28T10:37:11;14.77;;;10.97;;
7027;SDS011;3555;53.248;10.336;2022-09-28T10:39:42;14.97;;;11.13;;
7027;SDS011;3555;53.248;10.336;2022-09-28T10:42:19;14.13;;;11.27;;
7027;SDS011;3555;53.248;10.336;2022-09-28T10:44:55;16.57;;;11.03;;
7027;SDS011;3555;53.248;10.336;2022-09-28T10:47:27;12.30;;;9.23;;
7027;SDS011;3555;53.248;10.336;2022-09-28T10:49:56;11.73;;;10.00;;
7027;SDS011;3555;53.248;10.336;2022-09-28T10:52:31;11.10;;;9.50;;
7027;SDS011;3555;53.248;10.336;2022-09-28T10:57:54;15.13;;;11.47;;
7027;SDS011;3555;53.248;10.336;2022-09-28T11:00:28;16.70;;;12.70;;
7027;SDS011;3555;53.248;10.336;2022-09-28T11:02:59;14.50;;;11.10;;
7027;SDS011;3555;53.248;10.336;2022-09-28T11:05:27;15.63;;;9.97;;
7027;SDS011;3555;53.248;10.336;2022-09-28T11:07:55;15.43;;;9.90;;
7027;SDS011;3555;53.248;10.336;2022-09-28T11:10:24;12.85;;;9.15;;
7027;SDS011;3555;53.248;10.336;2022-09-28T11:12:54;12.32;;;10.02;;
7027;SDS011;3555;53.248;10.336;2022-09-28T11:15:23;14.60;;;10.43;;
7027;SDS011;3555;53.248;10.336;2022-09-28T11:17:53;16.17;;;11.83;;
7027;SDS011;3555;53.248;10.336;2022-09-28T11:20:30;13.03;;;9.87;;
7027;SDS011;3555;53.248;10.336;2022-09-28T11:23:00;12.90;;;10.43;;
7027;SDS011;3555;53.248;10.336;2022-09-28T11:25:55;12.37;;;10.27;;
7027;SDS011;3555;53.248;10.336;2022-09-28T11:28:24;13.85;;;10.43;;
7027;SDS011;3555;53.248;10.336;2022-09-28T11:30:56;16.10;;;11.03;;
7027;SDS011;3555;53.248;10.336;2022-09-28T11:33:25;11.20;;;9.30;;
7027;SDS011;3555;53.248;10.336;2022-09-28T11:35:59;12.57;;;9.53;;
7027;SDS011;3555;53.248;10.336;2022-09-28T11:38:38;12.25;;;9.10;;
7027;SDS011;3555;53.248;10.336;2022-09-28T11:41:23;11.23;;;9.47;;
7027;SDS011;3555;53.248;10.336;2022-09-28T11:44:06;11.55;;;8.93;;
7027;SDS011;3555;53.248;10.336;2022-09-28T11:46:48;13.63;;;9.90;;
7027;SDS011;3555;53.248;10.336;2022-09-28T11:49:26;13.07;;;9.07;;
7027;SDS011;3555;53.248;10.336;2022-09-28T11:51:59;11.75;;;8.38;;
7027;SDS011;3555;53.248;10.336;2022-09-28T11:54:34;8.52;;;7.40;;
7027;SDS011;3555;53.248;10.336;2022-09-28T11:57:10;11.13;;;8.23;;
7027;SDS011;3555;53.248;10.336;2022-09-28T11:59:41;10.27;;;7.82;;
7027;SDS011;3555;53.248;10.336;2022-09-28T12:02:18;8.88;;;7.35;;
7027;SDS011;3555;53.248;10.336;2022-09-28T12:04:51;8.02;;;7.00;;
7027;SDS011;3555;53.248;10.336;2022-09-28T12:07:22;8.95;;;7.80;;
7027;SDS011;3555;53.248;10.336;2022-09-28T12:09:53;6.80;;;5.95;;
7027;SDS011;3555;53.248;10.336;2022-09-28T12:12:27;7.20;;;4.97;;
7027;SDS011;3555;53.248;10.336;2022-09-28T12:14:58;11.00;;;7.28;;
7027;SDS011;3555;53.248;10.336;2022-09-28T12:17:31;7.40;;;5.72;;
7027;SDS011;3555;53.248;10.336;2022-09-28T12:20:09;6.78;;;5.40;;
7027;SDS011;3555;53.248;10.336;2022-09-28T12:22:43;5.70;;;4.97;;
7027;SDS011;3555;53.248;10.336;2022-09-28T12:25:13;6.72;;;5.78;;
7027;SDS011;3555;53.248;10.336;2022-09-28T12:27:46;5.60;;;4.53;;
7027;SDS011;3555;53.248;10.336;2022-09-28T12:30:17;7.72;;;4.28;;
7027;SDS011;3555;53.248;10.336;2022-09-28T12:32:45;5.80;;;4.82;;
7027;SDS011;3555;53.248;10.336;2022-09-28T12:35:18;7.00;;;5.00;;
7027;SDS011;3555;53.248;10.336;2022-09-28T12:37:55;5.85;;;4.50;;
7027;SDS011;3555;53.248;10.336;2022-09-28T12:40:37;4.47;;;3.80;;
7027;SDS011;3555;53.248;10.336;2022-09-28T12:46:17;6.15;;;4.80;;
7027;SDS011;3555;53.248;10.336;2022-09-28T12:51:46;5.72;;;3.63;;
7027;SDS011;3555;53.248;10.336;2022-09-28T12:57:29;3.97;;;2.80;;
7027;SDS011;3555;53.248;10.336;2022-09-28T13:00:04;6.18;;;3.30;;
7027;SDS011;3555;53.248;10.336;2022-09-28T13:02:39;4.45;;;2.88;;
7027;SDS011;3555;53.248;10.336;2022-09-28T13:08:27;7.05;;;4.88;;
7027;SDS011;3555;53.248;10.336;2022-09-28T13:11:04;9.77;;;6.25;;
7027;SDS011;3555;53.248;10.336;2022-09-28T13:13:42;7.43;;;5.85;;
7027;SDS011;3555;53.248;10.336;2022-09-28T13:16:23;6.47;;;5.78;;
7027;SDS011;3555;53.248;10.336;2022-09-28T13:18:56;6.90;;;4.75;;
7027;SDS011;3555;53.248;10.336;2022-09-28T13:21:30;4.22;;;3.80;;
7027;SDS011;3555;53.248;10.336;2022-09-28T13:24:04;5.45;;;3.40;;
7027;SDS011;3555;53.248;10.336;2022-09-28T13:26:37;6.45;;;3.83;;
7027;SDS011;3555;53.248;10.336;2022-09-28T13:29:09;5.07;;;4.10;;
7027;SDS011;3555;53.248;10.336;2022-09-28T13:31:42;7.53;;;4.00;;
7027;SDS011;3555;53.248;10.336;2022-09-28T13:34:14;5.97;;;3.28;;
7027;SDS011;3555;53.248;10.336;2022-09-28T13:36:44;4.90;;;3.38;;
7027;SDS011;3555;53.248;10.336;2022-09-28T13:39:35;3.95;;;3.25;;
7027;SDS011;3555;53.248;10.336;2022-09-28T13:42:20;3.20;;;2.90;;
7027;SDS011;3555;53.248;10.336;2022-09-28T13:44:56;4.95;;;3.35;;
7027;SDS011;3555;53.248;10.336;2022-09-28T13:47:54;5.40;;;3.40;;
7027;SDS011;3555;53.248;10.336;2022-09-28T13:50:45;6.63;;;3.67;;
7027;SDS011;3555;53.248;10.336;2022-09-28T13:53:31;5.05;;;3.38;;
7027;SDS011;3555;53.248;10.336;2022-09-28T13:56:10;5.35;;;3.47;;
7027;SDS011;3555;53.248;10.336;2022-09-28T13:58:50;6.47;;;5.70;;
7027;SDS011;3555;53.248;10.336;2022-09-28T14:01:22;5.88;;;5.20;;
7027;SDS011;3555;53.248;10.336;2022-09-28T14:03:56;5.45;;;4.45;;
7027;SDS011;3555;53.248;10.336;2022-09-28T14:06:40;3.80;;;3.17;;
7027;SDS011;3555;53.248;10.336;2022-09-28T14:09:37;4.45;;;3.08;;
7027;SDS011;3555;53.248;10.336;2022-09-28T14:14:53;5.60;;;3.42;;
7027;SDS011;3555;53.248;10.336;2022-09-28T14:20:20;4.30;;;2.72;;
7027;SDS011;3555;53.248;10.336;2022-09-28T14:26:11;4.63;;;2.83;;
7027;SDS011;3555;53.248;10.336;2022-09-28T14:29:07;3.60;;;2.85;;
7027;SDS011;3555;53.248;10.336;2022-09-28T14:31:44;6.57;;;4.03;;
7027;SDS011;3555;53.248;10.336;2022-09-28T14:34:24;7.68;;;5.20;;
7027;SDS011;3555;53.248;10.336;2022-09-28T14:36:58;4.78;;;3.55;;
7027;SDS011;3555;53.248;10.336;2022-09-28T14:39:44;3.85;;;3.50;;
7027;SDS011;3555;53.248;10.336;2022-09-28T14:42:30;3.83;;;3.17;;
7027;SDS011;3555;53.248;10.336;2022-09-28T14:50:45;4.25;;;2.92;;
7027;SDS011;3555;53.248;10.336;2022-09-28T14:53:16;5.32;;;2.95;;
7027;SDS011;3555;53.248;10.336;2022-09-28T14:55:46;5.22;;;3.78;;
7027;SDS011;3555;53.248;10.336;2022-09-28T14:58:16;6.10;;;5.30;;
7027;SDS011;3555;53.248;10.336;2022-09-28T15:00:47;5.05;;;3.83;;
7027;SDS011;3555;53.248;10.336;2022-09-28T15:03:20;5.57;;;4.00;;
7027;SDS011;3555;53.248;10.336;2022-09-28T15:05:49;4.72;;;3.70;;
7027;SDS011;3555;53.248;10.336;2022-09-28T15:08:19;7.07;;;5.38;;
7027;SDS011;3555;53.248;10.336;2022-09-28T15:10:46;10.20;;;8.95;;
7027;SDS011;3555;53.248;10.336;2022-09-28T15:13:16;8.00;;;4.43;;
7027;SDS011;3555;53.248;10.336;2022-09-28T15:15:45;6.40;;;3.63;;
7027;SDS011;3555;53.248;10.336;2022-09-28T15:18:19;5.63;;;3.70;;
7027;SDS011;3555;53.248;10.336;2022-09-28T15:21:07;4.22;;;3.80;;
7027;SDS011;3555;53.248;10.336;2022-09-28T15:23:37;7.57;;;4.30;;
7027;SDS011;3555;53.248;10.336;2022-09-28T15:26:05;5.85;;;3.20;;
7027;SDS011;3555;53.248;10.336;2022-09-28T15:28:33;5.15;;;4.60;;
7027;SDS011;3555;53.248;10.336;2022-09-28T15:31:03;4.20;;;2.95;;
7027;SDS011;3555;53.248;10.336;2022-09-28T15:33:31;8.75;;;3.85;;
7027;SDS011;3555;53.248;10.336;2022-09-28T15:36:17;4.25;;;3.10;;
7027;SDS011;3555;53.248;10.336;2022-09-28T15:38:50;7.18;;;3.40;;
7027;SDS011;3555;53.248;10.336;2022-09-28T15:41:21;5.53;;;4.40;;
7027;SDS011;3555;53.248;10.336;2022-09-28T15:47:02;3.72;;;3.42;;
7027;SDS011;3555;53.248;10.336;2022-09-28T15:49:35;6.05;;;3.40;;
7027;SDS011;3555;53.248;10.336;2022-09-28T15:52:06;5.38;;;3.65;;